createdAt,value
2023-02-18T00:04:27.922Z,6.32
2023-02-18T00:09:31.107Z,6.18
2023-02-18T00:14:34.230Z,6.97
2023-02-18T00:19:37.412Z,6.35
2023-02-18T00:24:41.036Z,6.72
2023-02-18T00:34:47.298Z,7.07
2023-02-18T00:39:50.392Z,7.47
2023-02-18T00:44:53.885Z,7.00
2023-02-18T00:49:57.738Z,7.55
2023-02-18T00:55:01.472Z,8.02
2023-02-18T01:00:08.681Z,7.60
2023-02-18T01:05:11.934Z,8.27
2023-02-18T01:15:18.786Z,7.68
2023-02-18T01:20:22.144Z,8.55
2023-02-18T01:35:31.529Z,9.38
2023-02-18T01:40:34.995Z,7.97
2023-02-18T01:45:47.141Z,7.72
2023-02-18T01:51:27.420Z,7.90
2023-02-18T01:56:51.481Z,8.27
2023-02-18T02:01:55.700Z,8.80
2023-02-18T02:07:00.803Z,8.25
2023-02-18T02:12:25.242Z,7.95
2023-02-18T02:17:34.947Z,9.38
2023-02-18T02:22:47.321Z,8.40
2023-02-18T02:28:30.959Z,8.73
2023-02-18T02:33:55.738Z,9.68
2023-02-18T02:39:13.297Z,9.75
2023-02-18T02:44:27.215Z,10.35
2023-02-18T02:49:53.886Z,9.75
2023-02-18T02:54:57.209Z,9.73
2023-02-18T03:00:10.199Z,9.93
2023-02-18T03:06:08.158Z,10.60
2023-02-18T03:11:15.009Z,9.20
2023-02-18T03:16:18.988Z,9.25
2023-02-18T03:21:33.334Z,9.50
2023-02-18T03:26:47.239Z,10.00
2023-02-18T03:31:57.528Z,9.68
2023-02-18T03:37:02.825Z,8.88
2023-02-18T03:42:07.202Z,9.20
2023-02-18T03:52:13.640Z,10.40
2023-02-18T03:57:16.916Z,10.30
2023-02-18T04:02:20.027Z,11.02
2023-02-18T04:07:23.235Z,10.55
2023-02-18T04:12:26.404Z,10.65
2023-02-18T04:17:29.623Z,11.75
2023-02-18T04:22:32.760Z,11.15
2023-02-18T04:27:38.989Z,11.88
2023-02-18T04:32:42.927Z,12.10
2023-02-18T04:37:46.266Z,12.27
2023-02-18T04:42:49.414Z,12.60
2023-02-18T04:47:53.152Z,13.23
2023-02-18T04:52:56.360Z,13.10
2023-02-18T04:57:59.481Z,13.43
2023-02-18T05:03:02.596Z,14.23
2023-02-18T05:08:05.942Z,12.95
2023-02-18T05:13:09.092Z,11.73
2023-02-18T05:18:12.767Z,10.70
2023-02-18T05:28:19.192Z,9.93
2023-02-18T05:33:22.532Z,10.55
2023-02-18T05:43:29.266Z,9.52
2023-02-18T05:48:32.819Z,9.13
2023-02-18T05:53:35.941Z,9.30
2023-02-18T05:58:39.201Z,9.90
2023-02-18T06:08:45.229Z,8.55
2023-02-18T06:13:48.416Z,8.88
2023-02-18T06:23:54.771Z,9.75
2023-02-18T06:28:58.329Z,9.20
2023-02-18T06:34:01.620Z,9.88
2023-02-18T06:39:06.114Z,9.75
2023-02-18T06:44:09.483Z,9.63
2023-02-18T06:49:12.847Z,8.98
2023-02-18T06:59:18.804Z,7.95
2023-02-18T07:04:22.099Z,9.45
2023-02-18T07:09:25.268Z,7.65
2023-02-18T07:14:28.543Z,8.32
2023-02-18T07:19:31.815Z,8.00
2023-02-18T07:24:34.940Z,8.23
2023-02-18T07:29:38.177Z,8.57
2023-02-18T07:34:41.453Z,8.38
2023-02-18T07:39:47.733Z,8.07
2023-02-18T07:44:51.280Z,8.48
2023-02-18T07:49:54.404Z,8.07
2023-02-18T07:54:57.709Z,7.10
2023-02-18T08:00:00.795Z,8.57
2023-02-18T08:05:04.318Z,8.50
2023-02-18T08:10:08.124Z,8.23
2023-02-18T08:15:11.484Z,8.75
2023-02-18T08:20:14.640Z,8.70
2023-02-18T08:25:28.977Z,9.55
2023-02-18T08:30:33.019Z,8.68
2023-02-18T08:35:36.202Z,8.50
2023-02-18T08:40:39.712Z,9.05
2023-02-18T08:45:44.544Z,9.10
2023-02-18T08:50:48.545Z,9.65
2023-02-18T08:55:51.927Z,9.80
2023-02-18T09:00:55.287Z,9.32
2023-02-18T09:05:59.908Z,9.98
2023-02-18T09:11:04.439Z,10.73
2023-02-18T09:16:14.902Z,10.18
2023-02-18T09:21:18.376Z,11.32
2023-02-18T09:26:22.804Z,11.45
2023-02-18T09:31:28.132Z,12.35
2023-02-18T09:36:34.578Z,11.52
2023-02-18T09:41:48.298Z,12.13
2023-02-18T09:47:06.857Z,11.50
2023-02-18T09:52:13.137Z,11.88
2023-02-18T09:57:27.823Z,11.75
2023-02-18T10:02:32.868Z,9.98
2023-02-18T10:07:39.028Z,10.40
2023-02-18T10:12:43.551Z,10.35
2023-02-18T10:17:48.697Z,9.68
